Adsdean, United Kingdom
Current Conditions -  °F | °C
As of 7:20 AM on Wednesday 22 Oct 2014 (Local Time) from EGHI Reporting Station
Few Clouds Few Clouds  
Wind Chill: 42°   Ceiling: Unl
Heat Index: 45°   Visibility: 6mi
Dew Point: 39°   Wind: 5mph
Humidity: 81%   Direction: 280°W
Pressure: 30.3"   Gusts: NA
Location:  50.86°N, 0.78°W
Report Text: EGHI 220620Z 28004KT 230V310 9999 FEW045 07/04 Q1026
Loading
Personal Weather Stations






























Interactive Weather Map
Tropical Storm Tracking
New forecast layout! Learn more

10-Day Weather Forecast

Advertisements
Track Severe Weather on mobile